Puget — AEQW — position and weather

sailwx.info

Track history (hours):
 
Tides and Currents Weather Stations Pressure Air Temp Water Temp Dewpoint Dewpoint Depression Visibility Wind Speed Wind Dir Waves Ship Positions

Puget

Last reported at 2014-Sep-20 21:34 UTC. Time now 2014-Nov-01 09:55 UTC.
Position N 47°40' W 122°24'.
Warning: this ship's position is 41 days out of date.

Length 20 m; draft 0.2 m.

Type: Ship. MMSI: 369970510.

Date/timePositionNaut miles runAvg speedWind from/ knotsBaromVisibWave heightAir tempDewpointWater temp
2014-Sep-20 21:34N 47°40' W 122°24'0 0.4
2014-Sep-20 20:33N 47°40' W 122°24'7 7.1
2014-Sep-20 19:33N 47°43' W 122°34'8 7.7
2014-Sep-20 18:33N 47°35' W 122°32'8 7.8
2014-Sep-20 17:31N 47°35' W 122°20'3 2.8
2014-Sep-20 16:33N 47°37' W 122°24'3 3.0
2014-Sep-20 15:32N 47°40' W 122°24'0 0.1
2014-Sep-20 14:33N 47°40' W 122°24'0 0.0
2014-Sep-18 22:21N 47°40' W 122°24'0 0.2
2014-Sep-18 21:34N 47°40' W 122°24'0 0.0
2014-Sep-18 20:34N 47°40' W 122°24'2 2.5
2014-Sep-18 19:33N 47°42' W 122°25'9 8.7
2014-Sep-18 18:34N 47°51' W 122°23'10 9.4
2014-Sep-18 17:32N 48°00' W 122°21'10 9.8
2014-Sep-18 16:31N 48°07' W 122°31'9 9.2
2014-Sep-18 15:32N 48°17' W 122°31'7 7.1
2014-Sep-18 14:29N 48°24' W 122°30'1 0.0
2014-Sep-17 23:04N 48°23' W 122°30'3 3.8
2014-Sep-17 22:15N 48°21' W 122°33'0 0.1
2014-Sep-17 21:23N 48°21' W 122°34'1 1.1
2014-Sep-17 20:33N 48°22' W 122°33'3 1.3
2014-Sep-17 18:29N 48°24' W 122°30'3 0.2
2014-Sep-16 22:20N 48°21' W 122°33'3 3.7
2014-Sep-16 21:33N 48°19' W 122°31'1 0.9
2014-Sep-16 20:32N 48°18' W 122°30'2 0.6
2014-Sep-16 16:27N 48°16' W 122°33'5 6.0
2014-Sep-16 15:32N 48°22' W 122°32'0 0.0
2014-Sep-15 21:21N 48°22' W 122°33'16 7.4
2014-Sep-15 19:09N 48°06' W 122°29'4 6.7
2014-Sep-15 18:32N 48°03' W 122°24'6 6.3
2014-Sep-15 17:33N 47°58' W 122°20'8 8.1
2014-Sep-15 16:33N 47°50' W 122°24'8 8.3
2014-Sep-15 15:33N 47°42' W 122°26'2 2.2
2014-Sep-15 14:33N 47°40' W 122°24'0 0.0
2014-Sep-15 13:33N 47°40' W 122°24'0 0.0
2014-Sep-15 12:33N 47°40' W 122°24'0 0.0
2014-Sep-15 11:33N 47°40' W 122°24'0 0.0
2014-Sep-15 10:33N 47°40' W 122°24'0 0.0
2014-Sep-15 09:34N 47°40' W 122°24'0 0.0
2014-Sep-15 08:33N 47°40' W 122°24'0 0.0
2014-Sep-15 07:33N 47°40' W 122°24'0 0.0
2014-Sep-15 06:33N 47°40' W 122°24'0 0.0
2014-Sep-15 05:33N 47°40' W 122°24'0 0.0
2014-Sep-15 04:33N 47°40' W 122°24'0 0.0
2014-Sep-15 03:33N 47°40' W 122°24'0 0.0
2014-Sep-15 02:33N 47°40' W 122°24'0 0.0
2014-Sep-15 01:33N 47°40' W 122°24'0 0.0
2014-Sep-15 00:33N 47°40' W 122°24'0 0.0
2014-Sep-14 23:33N 47°40' W 122°24'0 0.0
2014-Sep-14 22:33N 47°40' W 122°24'0 0.0
2014-Sep-14 21:33N 47°40' W 122°24'0 0.0
2014-Sep-14 20:33N 47°40' W 122°24'0 0.0
2014-Sep-14 19:33N 47°40' W 122°24'0 0.0
2014-Sep-14 18:33N 47°40' W 122°24'0 0.0
2014-Sep-14 17:33N 47°40' W 122°24'0 0.0
2014-Sep-14 16:33N 47°40' W 122°24'0 0.0
2014-Sep-14 13:32N 47°40' W 122°24'0 0.0
2014-Sep-14 12:33N 47°40' W 122°24'0 0.0
2014-Sep-14 11:33N 47°40' W 122°24'0 0.0
2014-Sep-14 10:33N 47°40' W 122°24'0 0.0
2014-Sep-14 09:33N 47°40' W 122°24'0 0.0
2014-Sep-14 08:33N 47°40' W 122°24'0 0.0
2014-Sep-14 07:33N 47°40' W 122°24'0 0.0
2014-Sep-14 06:33N 47°40' W 122°24'0 0.0
2014-Sep-14 05:33N 47°40' W 122°24'0 0.0
2014-Sep-14 04:33N 47°40' W 122°24'0 0.0
2014-Sep-14 03:33N 47°40' W 122°24'0 0.0
2014-Sep-14 02:33N 47°40' W 122°24'0 0.0
2014-Sep-14 01:33N 47°40' W 122°24'0 0.0
2014-Sep-13 21:33N 47°40' W 122°24'0 0.0
2014-Sep-13 20:33N 47°40' W 122°24'0 0.0
2014-Sep-13 19:33N 47°40' W 122°24'0 0.0
2014-Sep-13 18:33N 47°40' W 122°24'0 0.0
2014-Sep-13 17:33N 47°40' W 122°24'0 0.0
2014-Sep-13 16:33N 47°40' W 122°24'0 0.0
2014-Sep-13 15:33N 47°40' W 122°24'0 0.0
2014-Sep-13 14:33N 47°40' W 122°24'0 0.0
2014-Sep-13 13:33N 47°40' W 122°24'0 0.0
2014-Sep-13 12:33N 47°40' W 122°24'0 0.0
2014-Sep-13 11:33N 47°40' W 122°24'0 0.0
2014-Sep-13 10:33N 47°40' W 122°24'0 0.0
2014-Sep-13 09:33N 47°40' W 122°24'0 0.0
2014-Sep-13 08:33N 47°40' W 122°24'0 0.0
2014-Sep-13 07:33N 47°40' W 122°24'0 0.0
2014-Sep-13 06:33N 47°40' W 122°24'0 0.0
2014-Sep-13 05:33N 47°40' W 122°24'0 0.0
2014-Sep-13 04:33N 47°40' W 122°24'0 0.0
2014-Sep-13 03:33N 47°40' W 122°24'0 0.0
2014-Sep-13 02:33N 47°40' W 122°24'0 0.0
2014-Sep-13 01:33N 47°40' W 122°24'0 0.0
2014-Sep-13 00:33N 47°40' W 122°24'0 0.0
2014-Sep-12 23:33N 47°40' W 122°24'0 0.0
2014-Sep-12 22:33N 47°40' W 122°24'0 0.0
2014-Sep-12 21:33N 47°40' W 122°24'0 0.0
2014-Sep-12 20:33N 47°40' W 122°24'0 0.0
2014-Sep-12 19:33N 47°40' W 122°24'0 0.0
2014-Sep-12 18:33N 47°40' W 122°24'0 0.0
2014-Sep-12 17:33N 47°40' W 122°24'0 0.0
2014-Sep-12 16:33N 47°40' W 122°24'0 0.0
2014-Sep-12 15:33N 47°40' W 122°24'0 0.0
2014-Sep-12 14:33N 47°40' W 122°24'0 0.0
2014-Sep-12 13:33N 47°40' W 122°24'0 0.0
2014-Sep-12 12:33N 47°40' W 122°24'0 0.0
2014-Sep-12 11:33N 47°40' W 122°24'0 0.0
2014-Sep-12 10:33N 47°40' W 122°24'0 0.0
2014-Sep-12 09:33N 47°40' W 122°24'0 0.0
2014-Sep-12 08:33N 47°40' W 122°24'0 0.0
2014-Sep-12 07:33N 47°40' W 122°24'0 0.0
2014-Sep-12 06:33N 47°40' W 122°24'0 0.0
2014-Sep-12 05:33N 47°40' W 122°24'0 0.0
2014-Sep-12 04:33N 47°40' W 122°24'0 0.0
2014-Sep-12 03:33N 47°40' W 122°24'0 0.0
2014-Sep-12 02:34N 47°40' W 122°24'0 0.0
2014-Sep-12 01:33N 47°40' W 122°24'0 0.0
2014-Sep-12 00:33N 47°40' W 122°24'0 0.0
2014-Sep-11 23:33N 47°40' W 122°24'0 0.0
2014-Sep-11 22:33N 47°40' W 122°24'0 0.2
2014-Sep-11 21:33N 47°40' W 122°24'0 0.5
2014-Sep-11 20:33N 47°40' W 122°24'3 2.7
2014-Sep-11 19:33N 47°38' W 122°27'1010.0
2014-Sep-11 18:33N 47°28' W 122°31'1111.0
2014-Sep-11 17:33N 47°17' W 122°32'17 0.9
2014-Sep-10 22:32N 47°09' W 122°54'  
Track history (hours):
 
Tides and Currents Weather Stations Pressure Air Temp Water Temp Dewpoint Dewpoint Depression Visibility Wind Speed Wind Dir Waves Ship Positions

Puget

Last reported at 2014-Sep-20 21:34 UTC. Time now 2014-Nov-01 09:55 UTC.
Position N 47°40' W 122°24'.
Warning: this ship's position is 41 days out of date.

Length 20 m; draft 0.2 m.

Type: Ship. MMSI: 369970510.

Date/timePositionNaut miles runAvg speedWind from/ knotsBaromVisibWave heightAir tempDewpointWater temp
2014-Sep-20 21:34N 47°40' W 122°24'0 0.4
2014-Sep-20 20:33N 47°40' W 122°24'7 7.1
2014-Sep-20 19:33N 47°43' W 122°34'8 7.7
2014-Sep-20 18:33N 47°35' W 122°32'8 7.8
2014-Sep-20 17:31N 47°35' W 122°20'3 2.8
2014-Sep-20 16:33N 47°37' W 122°24'3 3.0
2014-Sep-20 15:32N 47°40' W 122°24'0 0.1
2014-Sep-20 14:33N 47°40' W 122°24'0 0.0
2014-Sep-18 22:21N 47°40' W 122°24'0 0.2
2014-Sep-18 21:34N 47°40' W 122°24'0 0.0
2014-Sep-18 20:34N 47°40' W 122°24'2 2.5
2014-Sep-18 19:33N 47°42' W 122°25'9 8.7
2014-Sep-18 18:34N 47°51' W 122°23'10 9.4
2014-Sep-18 17:32N 48°00' W 122°21'10 9.8
2014-Sep-18 16:31N 48°07' W 122°31'9 9.2
2014-Sep-18 15:32N 48°17' W 122°31'7 7.1
2014-Sep-18 14:29N 48°24' W 122°30'1 0.0
2014-Sep-17 23:04N 48°23' W 122°30'3 3.8
2014-Sep-17 22:15N 48°21' W 122°33'0 0.1
2014-Sep-17 21:23N 48°21' W 122°34'1 1.1
2014-Sep-17 20:33N 48°22' W 122°33'3 1.3
2014-Sep-17 18:29N 48°24' W 122°30'3 0.2
2014-Sep-16 22:20N 48°21' W 122°33'3 3.7
2014-Sep-16 21:33N 48°19' W 122°31'1 0.9
2014-Sep-16 20:32N 48°18' W 122°30'2 0.6
2014-Sep-16 16:27N 48°16' W 122°33'5 6.0
2014-Sep-16 15:32N 48°22' W 122°32'0 0.0
2014-Sep-15 21:21N 48°22' W 122°33'16 7.4
2014-Sep-15 19:09N 48°06' W 122°29'4 6.7
2014-Sep-15 18:32N 48°03' W 122°24'6 6.3
2014-Sep-15 17:33N 47°58' W 122°20'8 8.1
2014-Sep-15 16:33N 47°50' W 122°24'8 8.3
2014-Sep-15 15:33N 47°42' W 122°26'2 2.2
2014-Sep-15 14:33N 47°40' W 122°24'0 0.0
2014-Sep-15 13:33N 47°40' W 122°24'0 0.0
2014-Sep-15 12:33N 47°40' W 122°24'0 0.0
2014-Sep-15 11:33N 47°40' W 122°24'0 0.0
2014-Sep-15 10:33N 47°40' W 122°24'0 0.0
2014-Sep-15 09:34N 47°40' W 122°24'0 0.0
2014-Sep-15 08:33N 47°40' W 122°24'0 0.0
2014-Sep-15 07:33N 47°40' W 122°24'0 0.0
2014-Sep-15 06:33N 47°40' W 122°24'0 0.0
2014-Sep-15 05:33N 47°40' W 122°24'0 0.0
2014-Sep-15 04:33N 47°40' W 122°24'0 0.0
2014-Sep-15 03:33N 47°40' W 122°24'0 0.0
2014-Sep-15 02:33N 47°40' W 122°24'0 0.0
2014-Sep-15 01:33N 47°40' W 122°24'0 0.0
2014-Sep-15 00:33N 47°40' W 122°24'0 0.0
2014-Sep-14 23:33N 47°40' W 122°24'0 0.0
2014-Sep-14 22:33N 47°40' W 122°24'0 0.0
2014-Sep-14 21:33N 47°40' W 122°24'0 0.0
2014-Sep-14 20:33N 47°40' W 122°24'0 0.0
2014-Sep-14 19:33N 47°40' W 122°24'0 0.0
2014-Sep-14 18:33N 47°40' W 122°24'0 0.0
2014-Sep-14 17:33N 47°40' W 122°24'0 0.0
2014-Sep-14 16:33N 47°40' W 122°24'0 0.0
2014-Sep-14 13:32N 47°40' W 122°24'0 0.0
2014-Sep-14 12:33N 47°40' W 122°24'0 0.0
2014-Sep-14 11:33N 47°40' W 122°24'0 0.0
2014-Sep-14 10:33N 47°40' W 122°24'0 0.0
2014-Sep-14 09:33N 47°40' W 122°24'0 0.0
2014-Sep-14 08:33N 47°40' W 122°24'0 0.0
2014-Sep-14 07:33N 47°40' W 122°24'0 0.0
2014-Sep-14 06:33N 47°40' W 122°24'0 0.0
2014-Sep-14 05:33N 47°40' W 122°24'0 0.0
2014-Sep-14 04:33N 47°40' W 122°24'0 0.0
2014-Sep-14 03:33N 47°40' W 122°24'0 0.0
2014-Sep-14 02:33N 47°40' W 122°24'0 0.0
2014-Sep-14 01:33N 47°40' W 122°24'0 0.0
2014-Sep-13 21:33N 47°40' W 122°24'0 0.0
2014-Sep-13 20:33N 47°40' W 122°24'0 0.0
2014-Sep-13 19:33N 47°40' W 122°24'0 0.0
2014-Sep-13 18:33N 47°40' W 122°24'0 0.0
2014-Sep-13 17:33N 47°40' W 122°24'0 0.0
2014-Sep-13 16:33N 47°40' W 122°24'0 0.0
2014-Sep-13 15:33N 47°40' W 122°24'0 0.0
2014-Sep-13 14:33N 47°40' W 122°24'0 0.0
2014-Sep-13 13:33N 47°40' W 122°24'0 0.0
2014-Sep-13 12:33N 47°40' W 122°24'0 0.0
2014-Sep-13 11:33N 47°40' W 122°24'0 0.0
2014-Sep-13 10:33N 47°40' W 122°24'0 0.0
2014-Sep-13 09:33N 47°40' W 122°24'0 0.0
2014-Sep-13 08:33N 47°40' W 122°24'0 0.0
2014-Sep-13 07:33N 47°40' W 122°24'0 0.0
2014-Sep-13 06:33N 47°40' W 122°24'0 0.0
2014-Sep-13 05:33N 47°40' W 122°24'0 0.0
2014-Sep-13 04:33N 47°40' W 122°24'0 0.0
2014-Sep-13 03:33N 47°40' W 122°24'0 0.0
2014-Sep-13 02:33N 47°40' W 122°24'0 0.0
2014-Sep-13 01:33N 47°40' W 122°24'0 0.0
2014-Sep-13 00:33N 47°40' W 122°24'0 0.0
2014-Sep-12 23:33N 47°40' W 122°24'0 0.0
2014-Sep-12 22:33N 47°40' W 122°24'0 0.0
2014-Sep-12 21:33N 47°40' W 122°24'0 0.0
2014-Sep-12 20:33N 47°40' W 122°24'0 0.0
2014-Sep-12 19:33N 47°40' W 122°24'0 0.0
2014-Sep-12 18:33N 47°40' W 122°24'0 0.0
2014-Sep-12 17:33N 47°40' W 122°24'0 0.0
2014-Sep-12 16:33N 47°40' W 122°24'0 0.0
2014-Sep-12 15:33N 47°40' W 122°24'0 0.0
2014-Sep-12 14:33N 47°40' W 122°24'0 0.0
2014-Sep-12 13:33N 47°40' W 122°24'0 0.0
2014-Sep-12 12:33N 47°40' W 122°24'0 0.0
2014-Sep-12 11:33N 47°40' W 122°24'0 0.0
2014-Sep-12 10:33N 47°40' W 122°24'0 0.0
2014-Sep-12 09:33N 47°40' W 122°24'0 0.0
2014-Sep-12 08:33N 47°40' W 122°24'0 0.0
2014-Sep-12 07:33N 47°40' W 122°24'0 0.0
2014-Sep-12 06:33N 47°40' W 122°24'0 0.0
2014-Sep-12 05:33N 47°40' W 122°24'0 0.0
2014-Sep-12 04:33N 47°40' W 122°24'0 0.0
2014-Sep-12 03:33N 47°40' W 122°24'0 0.0
2014-Sep-12 02:34N 47°40' W 122°24'0 0.0
2014-Sep-12 01:33N 47°40' W 122°24'0 0.0
2014-Sep-12 00:33N 47°40' W 122°24'0 0.0
2014-Sep-11 23:33N 47°40' W 122°24'0 0.0
2014-Sep-11 22:33N 47°40' W 122°24'0 0.2
2014-Sep-11 21:33N 47°40' W 122°24'0 0.5
2014-Sep-11 20:33N 47°40' W 122°24'3 2.7
2014-Sep-11 19:33N 47°38' W 122°27'1010.0
2014-Sep-11 18:33N 47°28' W 122°31'1111.0
2014-Sep-11 17:33N 47°17' W 122°32'17 0.9
2014-Sep-10 22:32N 47°09' W 122°54'  

Dump ship's entire track history